createdAt,value
2019-05-19T00:01:26.859Z,1.87
2019-05-19T00:03:54.214Z,1.53
2019-05-19T00:06:21.516Z,1.70
2019-05-19T00:08:48.867Z,1.57
2019-05-19T00:11:16.146Z,2.10
2019-05-19T00:13:43.467Z,1.60
2019-05-19T00:16:10.836Z,3.83
2019-05-19T00:18:38.154Z,2.13
2019-05-19T00:21:05.508Z,2.33
2019-05-19T00:23:32.855Z,2.77
2019-05-19T00:26:00.117Z,1.40
2019-05-19T00:28:27.465Z,1.73
2019-05-19T00:30:54.839Z,2.33
2019-05-19T00:33:22.165Z,1.80
2019-05-19T00:35:49.465Z,2.03
2019-05-19T00:38:16.847Z,2.90
2019-05-19T00:40:44.145Z,2.50
2019-05-19T00:43:11.466Z,3.00
2019-05-19T00:45:38.895Z,2.30
2019-05-19T00:48:06.185Z,2.33
2019-05-19T00:50:33.526Z,2.00
2019-05-19T00:53:00.887Z,2.13
2019-05-19T00:55:28.281Z,3.70
2019-05-19T00:57:56.526Z,1.93
2019-05-19T01:00:23.885Z,1.40
2019-05-19T01:02:51.305Z,2.57
2019-05-19T01:05:20.708Z,3.00
2019-05-19T01:07:47.834Z,1.53
2019-05-19T01:10:15.119Z,2.20
2019-05-19T01:12:42.440Z,1.60
2019-05-19T01:15:10.104Z,1.50
2019-05-19T01:17:37.448Z,2.10
2019-05-19T01:20:05.036Z,1.93
2019-05-19T01:22:32.406Z,1.70
2019-05-19T01:24:59.722Z,4.50
2019-05-19T01:27:27.055Z,2.33
2019-05-19T01:29:54.415Z,2.77
2019-05-19T01:32:21.716Z,1.50
2019-05-19T01:34:49.133Z,1.70
2019-05-19T01:37:16.436Z,2.50
2019-05-19T01:39:43.769Z,1.77
2019-05-19T01:42:11.063Z,1.40
2019-05-19T01:44:38.405Z,1.63
2019-05-19T01:47:05.752Z,2.50
2019-05-19T01:49:33.085Z,1.40
2019-05-19T01:52:00.409Z,1.73
2019-05-19T01:54:27.725Z,1.43
2019-05-19T01:56:55.013Z,1.47
2019-05-19T01:59:22.379Z,2.80
2019-05-19T02:01:50.889Z,1.80
2019-05-19T02:04:18.291Z,2.90
2019-05-19T02:06:45.709Z,1.70
2019-05-19T02:09:13.017Z,2.47
2019-05-19T02:11:40.329Z,3.93
2019-05-19T02:14:07.685Z,1.77
2019-05-19T02:16:34.983Z,3.47
2019-05-19T02:19:02.486Z,2.13
2019-05-19T02:21:29.925Z,3.10
2019-05-19T02:23:57.235Z,3.47
2019-05-19T02:26:24.549Z,3.53
2019-05-19T02:28:51.888Z,4.07
2019-05-19T02:31:19.221Z,3.63
2019-05-19T02:33:46.579Z,3.03
2019-05-19T02:36:13.975Z,4.27
2019-05-19T02:38:41.310Z,2.73
2019-05-19T02:41:09.649Z,2.80
2019-05-19T02:43:37.417Z,2.70
2019-05-19T02:46:05.030Z,3.00
2019-05-19T02:48:32.966Z,3.93
2019-05-19T02:51:01.661Z,2.30
2019-05-19T02:53:30.595Z,2.80
2019-05-19T02:55:59.727Z,2.67
2019-05-19T02:58:27.165Z,2.50
2019-05-19T03:00:54.526Z,3.13
2019-05-19T03:03:21.809Z,3.40
2019-05-19T03:05:49.123Z,2.20
2019-05-19T03:08:16.445Z,2.60
2019-05-19T03:10:44.046Z,2.30
2019-05-19T03:13:11.394Z,2.77
2019-05-19T03:15:38.714Z,2.43
2019-05-19T03:18:06.151Z,4.20
2019-05-19T03:20:33.530Z,3.30
2019-05-19T03:23:00.845Z,2.70
2019-05-19T03:25:28.145Z,2.67
2019-05-19T03:27:55.666Z,3.10
2019-05-19T03:30:31.953Z,1.97
2019-05-19T03:33:00.900Z,3.27
2019-05-19T03:35:28.277Z,4.80
2019-05-19T03:37:55.595Z,2.97
2019-05-19T03:40:22.937Z,3.17
2019-05-19T03:42:50.600Z,3.23
2019-05-19T03:45:17.922Z,3.30
2019-05-19T03:47:45.326Z,2.43
2019-05-19T03:50:12.646Z,2.60
2019-05-19T03:52:39.967Z,1.93
2019-05-19T03:55:07.305Z,2.73
2019-05-19T03:57:34.626Z,3.80
2019-05-19T04:00:02.205Z,2.17
2019-05-19T04:02:29.778Z,2.27
2019-05-19T04:04:57.256Z,4.13
2019-05-19T04:07:24.799Z,2.67
2019-05-19T04:09:52.212Z,3.90
2019-05-19T04:12:19.523Z,2.53
2019-05-19T04:14:46.849Z,2.40
2019-05-19T04:17:14.318Z,2.67
2019-05-19T04:19:41.667Z,2.40
2019-05-19T04:22:09.007Z,3.17
2019-05-19T04:24:39.982Z,5.03
2019-05-19T04:27:07.285Z,2.60
2019-05-19T04:29:34.613Z,2.97
2019-05-19T04:32:01.960Z,2.60
2019-05-19T04:34:29.267Z,3.23
2019-05-19T04:36:56.576Z,3.30
2019-05-19T04:39:23.887Z,3.63
2019-05-19T04:41:51.201Z,3.60
2019-05-19T04:44:18.534Z,2.90
2019-05-19T04:46:45.927Z,2.93
2019-05-19T04:49:13.285Z,3.77
2019-05-19T04:51:40.604Z,2.83
2019-05-19T04:54:07.947Z,3.13
2019-05-19T04:56:35.272Z,2.97
2019-05-19T04:59:02.603Z,3.00
2019-05-19T05:01:29.988Z,3.10
2019-05-19T05:03:57.290Z,2.70
2019-05-19T05:06:24.710Z,3.77
2019-05-19T05:08:52.106Z,2.60
2019-05-19T05:11:19.414Z,4.03
2019-05-19T05:13:46.759Z,4.03
2019-05-19T05:16:14.149Z,3.00
2019-05-19T05:18:41.597Z,2.33
2019-05-19T05:21:09.112Z,2.67
2019-05-19T05:23:36.520Z,4.23
2019-05-19T05:26:03.839Z,6.23
2019-05-19T05:28:31.226Z,3.83
2019-05-19T05:30:58.637Z,3.73
2019-05-19T05:33:26.000Z,3.90
2019-05-19T05:35:53.287Z,3.90
2019-05-19T05:38:20.634Z,3.63
2019-05-19T05:40:47.941Z,6.23
2019-05-19T05:43:15.267Z,3.40
2019-05-19T05:45:42.654Z,4.50
2019-05-19T05:48:10.022Z,4.13
2019-05-19T05:50:37.318Z,4.53
2019-05-19T05:53:04.691Z,3.73
2019-05-19T05:55:32.027Z,5.17
2019-05-19T05:57:59.347Z,5.10
2019-05-19T06:00:26.709Z,4.93
2019-05-19T06:02:54.032Z,4.40
2019-05-19T06:05:21.336Z,4.30
2019-05-19T06:07:48.718Z,3.83
2019-05-19T06:10:16.205Z,4.27
2019-05-19T06:12:43.609Z,4.30
2019-05-19T06:15:11.628Z,4.20
2019-05-19T06:17:38.926Z,4.23
2019-05-19T06:20:07.244Z,3.77
2019-05-19T06:22:35.127Z,3.63
2019-05-19T06:25:02.525Z,5.80
2019-05-19T06:27:39.318Z,4.90
2019-05-19T06:30:08.892Z,4.03
2019-05-19T06:32:45.785Z,4.50
2019-05-19T06:35:13.902Z,3.87
2019-05-19T06:37:41.206Z,3.77
2019-05-19T06:40:08.642Z,3.43
2019-05-19T06:42:36.017Z,3.40
2019-05-19T06:45:05.227Z,3.33
2019-05-19T06:47:32.547Z,3.50
2019-05-19T06:49:59.965Z,3.00
2019-05-19T06:52:27.301Z,4.90
2019-05-19T06:54:54.623Z,4.80
2019-05-19T06:57:21.969Z,5.37
2019-05-19T06:59:49.312Z,22.57
2019-05-19T07:02:16.671Z,18.20
2019-05-19T07:04:44.290Z,20.10
2019-05-19T07:07:11.653Z,7.53
2019-05-19T07:09:38.974Z,3.83
2019-05-19T07:12:06.349Z,3.30
2019-05-19T07:14:33.942Z,3.00
2019-05-19T07:17:01.241Z,1.53
2019-05-19T07:19:28.584Z,3.67
2019-05-19T07:21:55.895Z,3.47
2019-05-19T07:24:23.259Z,2.20
2019-05-19T07:26:50.689Z,2.90
2019-05-19T07:29:18.046Z,2.57
2019-05-19T07:31:45.390Z,1.50
2019-05-19T07:34:12.767Z,5.57
2019-05-19T07:36:40.088Z,1.40
2019-05-19T07:39:07.547Z,1.80
2019-05-19T07:41:34.944Z,1.20
2019-05-19T07:44:02.481Z,2.67
2019-05-19T07:46:29.854Z,1.03
2019-05-19T07:48:57.227Z,1.07
2019-05-19T07:51:24.531Z,0.80
2019-05-19T07:53:52.017Z,0.70
2019-05-19T07:56:19.647Z,1.10
2019-05-19T07:58:46.987Z,1.07
2019-05-19T08:01:14.269Z,1.50
2019-05-19T08:03:41.659Z,1.10
2019-05-19T08:06:09.046Z,1.83
2019-05-19T08:08:36.446Z,1.00
2019-05-19T08:11:03.842Z,1.53
2019-05-19T08:13:31.225Z,1.17
2019-05-19T08:15:58.554Z,1.93
2019-05-19T08:18:25.931Z,0.80
2019-05-19T08:20:53.246Z,0.87
2019-05-19T08:23:20.650Z,0.90
2019-05-19T08:25:48.024Z,0.80
2019-05-19T08:28:15.346Z,0.90
2019-05-19T08:30:42.715Z,0.70
2019-05-19T08:33:10.388Z,1.33
2019-05-19T08:35:37.720Z,1.13
2019-05-19T08:38:05.183Z,1.63
2019-05-19T08:40:32.565Z,1.40
2019-05-19T08:42:59.870Z,0.90
2019-05-19T08:45:27.259Z,0.80
2019-05-19T08:47:54.801Z,0.90
2019-05-19T08:50:22.134Z,1.20
2019-05-19T08:52:49.490Z,0.70
2019-05-19T08:55:17.009Z,0.90
2019-05-19T08:57:44.376Z,0.80
2019-05-19T09:00:11.833Z,1.17
2019-05-19T09:02:39.239Z,0.97
2019-05-19T09:05:06.798Z,3.17
2019-05-19T09:07:34.149Z,1.17
2019-05-19T09:10:01.571Z,0.93
2019-05-19T09:12:28.937Z,1.10
2019-05-19T09:14:56.292Z,1.07
2019-05-19T09:17:23.702Z,0.90
2019-05-19T09:19:51.099Z,0.70
2019-05-19T09:22:18.619Z,0.50
2019-05-19T09:24:46.023Z,1.40
2019-05-19T09:27:13.413Z,0.97
2019-05-19T09:29:42.402Z,0.90
2019-05-19T09:32:14.021Z,0.60
2019-05-19T09:34:45.847Z,1.53
2019-05-19T09:37:13.304Z,0.80
2019-05-19T09:39:40.770Z,1.30
2019-05-19T09:42:08.127Z,0.60
2019-05-19T09:44:35.481Z,0.83
2019-05-19T09:47:02.960Z,0.77
2019-05-19T09:49:33.537Z,0.60
2019-05-19T09:52:02.811Z,0.70
2019-05-19T09:54:42.733Z,0.90
2019-05-19T09:56:59.900Z,0.70
2019-05-19T09:59:27.531Z,0.80
2019-05-19T10:01:55.010Z,0.80
2019-05-19T10:04:22.386Z,0.63
2019-05-19T10:06:49.802Z,0.60
2019-05-19T10:09:49.010Z,0.70
2019-05-19T10:12:17.461Z,0.80
2019-05-19T10:14:44.832Z,0.90
2019-05-19T10:17:12.370Z,0.80
2019-05-19T10:19:39.730Z,0.50
2019-05-19T10:22:07.110Z,0.47
2019-05-19T10:24:34.562Z,0.93
2019-05-19T10:27:01.908Z,0.70
2019-05-19T10:29:29.310Z,1.40
2019-05-19T10:31:56.629Z,1.70
2019-05-19T10:34:23.991Z,0.70
2019-05-19T10:36:51.362Z,0.80
2019-05-19T10:39:19.890Z,1.27
2019-05-19T10:41:47.318Z,0.70
2019-05-19T10:44:14.644Z,0.80
2019-05-19T10:46:42.122Z,0.80
2019-05-19T10:49:09.494Z,0.60
2019-05-19T10:51:36.825Z,0.83
2019-05-19T10:54:04.334Z,1.30
2019-05-19T10:56:31.640Z,0.90
2019-05-19T10:58:58.990Z,0.90
2019-05-19T11:01:26.526Z,1.63
2019-05-19T11:03:53.994Z,0.93
2019-05-19T11:06:21.317Z,0.90
2019-05-19T11:08:48.690Z,1.50
2019-05-19T11:11:16.323Z,0.90
2019-05-19T11:13:43.665Z,0.90
2019-05-19T11:16:11.059Z,1.97
2019-05-19T11:18:38.389Z,1.03
2019-05-19T11:21:05.768Z,0.80
2019-05-19T11:23:33.262Z,0.70
2019-05-19T11:26:00.708Z,0.80
2019-05-19T11:28:28.163Z,3.67
2019-05-19T11:30:55.803Z,1.17
2019-05-19T11:33:23.230Z,1.17
2019-05-19T11:35:50.750Z,2.07
2019-05-19T11:38:18.135Z,1.27
2019-05-19T11:40:45.472Z,1.13
2019-05-19T11:43:12.855Z,1.63
2019-05-19T11:45:40.292Z,0.90
2019-05-19T11:48:07.693Z,2.07
2019-05-19T11:50:35.245Z,0.73
2019-05-19T11:53:02.632Z,2.10
2019-05-19T11:55:30.084Z,1.17
2019-05-19T11:57:57.568Z,1.47
2019-05-19T12:00:25.087Z,1.90
2019-05-19T12:02:52.550Z,0.90
2019-05-19T12:05:20.341Z,0.97
2019-05-19T12:07:47.767Z,0.90
2019-05-19T12:10:15.254Z,1.10
2019-05-19T12:12:42.655Z,1.93
2019-05-19T12:15:10.583Z,1.30
2019-05-19T12:17:38.194Z,1.03
2019-05-19T12:20:06.355Z,1.03
2019-05-19T12:22:33.881Z,0.80
2019-05-19T12:25:01.288Z,0.80
2019-05-19T12:27:28.690Z,1.20
2019-05-19T12:29:56.087Z,1.57
2019-05-19T12:32:23.478Z,1.00
2019-05-19T12:34:50.790Z,1.50
2019-05-19T12:37:18.281Z,2.07
2019-05-19T12:39:45.642Z,1.23
2019-05-19T12:42:12.983Z,0.80
2019-05-19T12:44:40.378Z,1.87
2019-05-19T12:47:07.790Z,2.73
2019-05-19T12:49:35.114Z,1.30
2019-05-19T12:52:02.626Z,1.33
2019-05-19T12:54:30.005Z,2.87
2019-05-19T12:56:57.363Z,1.33
2019-05-19T12:59:24.799Z,2.40
2019-05-19T13:01:52.146Z,1.00
2019-05-19T13:04:19.527Z,1.00
2019-05-19T13:06:46.962Z,1.53
2019-05-19T13:09:14.625Z,1.30
2019-05-19T13:11:41.963Z,3.30
2019-05-19T13:14:09.372Z,2.87
2019-05-19T13:16:36.778Z,1.60
2019-05-19T13:19:04.150Z,1.20
2019-05-19T13:21:31.634Z,2.10
2019-05-19T13:23:58.993Z,1.30
2019-05-19T13:26:26.394Z,2.50
2019-05-19T13:28:53.856Z,0.80
2019-05-19T13:31:21.282Z,0.90
2019-05-19T13:33:48.686Z,1.27
2019-05-19T13:36:16.077Z,0.67
2019-05-19T13:38:43.481Z,0.80
2019-05-19T13:41:10.850Z,0.70
2019-05-19T13:43:38.253Z,0.60
2019-05-19T13:46:05.606Z,1.20
2019-05-19T13:48:32.968Z,3.47
2019-05-19T13:51:00.401Z,2.40
2019-05-19T13:53:28.156Z,2.10
2019-05-19T13:55:55.569Z,0.60
2019-05-19T13:58:23.035Z,0.80
2019-05-19T14:00:50.348Z,1.53
2019-05-19T14:03:17.728Z,0.63
2019-05-19T14:05:45.143Z,2.20
2019-05-19T14:08:12.835Z,0.90
2019-05-19T14:10:40.198Z,1.20
2019-05-19T14:13:07.673Z,1.20
2019-05-19T14:15:35.288Z,1.07
2019-05-19T14:18:02.821Z,1.30
2019-05-19T14:20:30.259Z,1.83
2019-05-19T14:22:57.667Z,1.10
2019-05-19T14:25:25.107Z,1.30
2019-05-19T14:27:55.697Z,1.83
2019-05-19T14:30:24.296Z,1.70
2019-05-19T14:32:57.743Z,1.20
2019-05-19T14:35:26.856Z,1.87
2019-05-19T14:37:54.362Z,3.07
2019-05-19T14:40:23.226Z,2.37
2019-05-19T14:42:55.230Z,3.57
2019-05-19T14:45:24.204Z,1.67
2019-05-19T14:50:39.870Z,1.43
2019-05-19T14:53:07.832Z,1.80
2019-05-19T14:55:37.915Z,1.30
2019-05-19T14:58:07.289Z,1.80
2019-05-19T15:00:52.810Z,2.50
2019-05-19T15:03:20.830Z,2.60
2019-05-19T15:05:48.293Z,1.93
2019-05-19T15:08:16.993Z,2.30
2019-05-19T15:10:44.406Z,2.57
2019-05-19T15:13:11.942Z,1.83
2019-05-19T15:15:39.374Z,1.90
2019-05-19T15:18:06.897Z,1.57
2019-05-19T15:20:34.853Z,1.43
2019-05-19T15:23:05.786Z,1.93
2019-05-19T15:25:33.651Z,1.90
2019-05-19T15:28:05.206Z,1.60
2019-05-19T15:30:31.347Z,2.00
2019-05-19T15:32:59.957Z,3.97
2019-05-19T15:35:29.561Z,1.73
2019-05-19T15:37:57.028Z,2.57
2019-05-19T15:40:25.044Z,1.30
2019-05-19T15:42:54.786Z,2.73
2019-05-19T15:45:22.435Z,1.50
2019-05-19T15:47:49.903Z,2.23
2019-05-19T15:50:19.059Z,2.27
2019-05-19T15:52:51.421Z,1.17
2019-05-19T15:55:23.716Z,1.83
2019-05-19T15:57:52.336Z,1.30
2019-05-19T16:00:21.932Z,2.90
2019-05-19T16:02:52.994Z,2.53
2019-05-19T16:05:23.611Z,1.73
2019-05-19T16:07:58.607Z,1.50
2019-05-19T16:10:26.636Z,3.23
2019-05-19T16:12:54.864Z,1.90
2019-05-19T16:15:23.883Z,1.23
2019-05-19T16:17:53.673Z,2.63
2019-05-19T16:20:21.855Z,1.50
2019-05-19T16:22:49.476Z,1.17
2019-05-19T16:25:16.974Z,2.10
2019-05-19T16:27:47.086Z,1.10
2019-05-19T16:30:15.246Z,1.07
2019-05-19T16:32:46.154Z,0.97
2019-05-19T16:35:13.757Z,1.33
2019-05-19T16:37:41.777Z,3.13
2019-05-19T16:40:09.343Z,3.80
2019-05-19T16:42:37.296Z,0.90
2019-05-19T16:45:05.751Z,1.20
2019-05-19T16:47:33.221Z,0.90
2019-05-19T16:50:11.585Z,1.30
2019-05-19T16:52:39.913Z,1.23
2019-05-19T16:55:25.674Z,2.63
2019-05-19T16:57:54.197Z,1.37
2019-05-19T17:00:23.103Z,1.00
2019-05-19T17:02:54.806Z,1.00
2019-05-19T17:05:31.013Z,1.77
2019-05-19T17:07:59.223Z,1.23
2019-05-19T17:10:31.625Z,1.50
2019-05-19T17:12:59.210Z,1.20
2019-05-19T17:15:27.930Z,0.90
2019-05-19T17:17:55.519Z,1.23
2019-05-19T17:20:24.091Z,0.80
2019-05-19T17:22:52.035Z,2.20
2019-05-19T17:25:23.163Z,1.27
2019-05-19T17:27:51.246Z,1.30
2019-05-19T17:30:21.085Z,1.33
2019-05-19T17:32:49.210Z,1.33
2019-05-19T17:35:17.057Z,2.57
2019-05-19T17:37:45.826Z,1.70
2019-05-19T17:40:13.745Z,1.20
2019-05-19T17:42:41.553Z,1.83
2019-05-19T17:45:12.173Z,2.10
2019-05-19T17:47:39.715Z,2.47
2019-05-19T17:50:07.530Z,1.30
2019-05-19T17:52:36.349Z,2.00
2019-05-19T17:55:04.885Z,1.70
2019-05-19T17:57:33.627Z,1.40
2019-05-19T18:00:02.880Z,1.33
2019-05-19T18:02:30.987Z,0.97
2019-05-19T18:05:00.775Z,2.70
2019-05-19T18:07:30.736Z,1.30
2019-05-19T18:10:00.854Z,1.33
2019-05-19T18:12:28.269Z,1.83
2019-05-19T18:14:57.066Z,1.47
2019-05-19T18:17:26.288Z,1.40
2019-05-19T18:20:22.717Z,1.30
2019-05-19T18:22:43.122Z,1.37
2019-05-19T18:25:12.109Z,1.40
2019-05-19T18:27:40.756Z,1.70
2019-05-19T18:30:13.545Z,2.10
2019-05-19T18:32:41.750Z,1.60
2019-05-19T18:35:23.355Z,2.73
2019-05-19T18:37:51.818Z,1.73
2019-05-19T18:40:21.032Z,1.60
2019-05-19T18:42:50.128Z,1.40
2019-05-19T18:45:20.983Z,1.50
2019-05-19T18:47:50.379Z,1.63
2019-05-19T18:50:20.577Z,1.47
2019-05-19T18:52:53.321Z,1.30
2019-05-19T18:55:22.314Z,1.50
2019-05-19T18:57:53.859Z,1.63
2019-05-19T19:00:37.709Z,1.57
2019-05-19T19:03:13.178Z,1.80
2019-05-19T19:05:41.701Z,1.67
2019-05-19T19:08:10.029Z,1.73
2019-05-19T19:10:40.859Z,3.13
2019-05-19T19:13:09.396Z,2.90
2019-05-19T19:15:41.154Z,1.70
2019-05-19T19:20:58.323Z,1.47
2019-05-19T19:23:26.551Z,2.77
2019-05-19T19:25:55.369Z,2.67
2019-05-19T19:28:33.550Z,2.57
2019-05-19T19:31:01.223Z,2.03
2019-05-19T19:33:29.543Z,2.60
2019-05-19T19:35:57.293Z,1.80
2019-05-19T19:38:25.061Z,2.07
2019-05-19T19:40:58.072Z,2.83
2019-05-19T19:43:29.355Z,2.10
2019-05-19T19:45:58.148Z,1.67
2019-05-19T19:48:35.108Z,1.40
2019-05-19T19:51:03.901Z,1.17
2019-05-19T19:53:31.567Z,1.50
2019-05-19T19:56:04.233Z,2.10
2019-05-19T19:58:33.107Z,1.37
2019-05-19T20:01:05.492Z,1.50
2019-05-19T20:03:39.792Z,1.53
2019-05-19T20:06:08.815Z,1.50
2019-05-19T20:08:37.054Z,1.20
2019-05-19T20:11:07.298Z,1.47
2019-05-19T20:13:44.771Z,1.40
2019-05-19T20:16:16.092Z,1.77
2019-05-19T20:18:44.329Z,1.30
2019-05-19T20:21:13.045Z,2.70
2019-05-19T20:23:45.285Z,1.63
2019-05-19T20:26:15.146Z,1.50
2019-05-19T20:28:42.978Z,1.90
2019-05-19T20:31:10.741Z,1.80
2019-05-19T20:33:39.625Z,1.70
2019-05-19T20:36:07.612Z,1.50
2019-05-19T20:38:35.042Z,1.50
2019-05-19T20:41:04.991Z,1.40
2019-05-19T20:43:32.474Z,3.73
2019-05-19T20:45:59.942Z,2.33
2019-05-19T20:48:33.900Z,1.57
2019-05-19T20:51:01.287Z,1.60
2019-05-19T20:53:28.689Z,2.00
2019-05-19T20:55:56.147Z,2.37
2019-05-19T20:58:23.648Z,1.97
2019-05-19T21:00:51.976Z,1.50
2019-05-19T21:03:19.575Z,1.90
2019-05-19T21:05:46.946Z,2.27
2019-05-19T21:08:20.201Z,2.30
2019-05-19T21:10:47.723Z,1.80
2019-05-19T21:13:15.080Z,3.10
2019-05-19T21:15:42.545Z,2.93
2019-05-19T21:18:10.005Z,1.93
2019-05-19T21:20:37.465Z,1.50
2019-05-19T21:23:04.800Z,1.20
2019-05-19T21:25:34.696Z,2.43
2019-05-19T21:28:02.107Z,1.80
2019-05-19T21:30:29.461Z,1.43
2019-05-19T21:32:56.881Z,3.57
2019-05-19T21:35:24.317Z,1.17
2019-05-19T21:37:51.713Z,2.03
2019-05-19T21:40:19.103Z,1.50
2019-05-19T21:42:46.397Z,1.63
2019-05-19T21:45:13.905Z,1.07
2019-05-19T21:47:41.244Z,1.30
2019-05-19T21:50:08.894Z,1.57
2019-05-19T21:52:36.205Z,1.43
2019-05-19T21:55:04.329Z,2.27
2019-05-19T21:57:31.647Z,1.10
2019-05-19T21:59:58.980Z,2.33
2019-05-19T22:02:26.456Z,1.50
2019-05-19T22:04:53.802Z,1.30
2019-05-19T22:07:34.813Z,1.57
2019-05-19T22:10:02.201Z,2.23
2019-05-19T22:12:29.565Z,1.20
2019-05-19T22:14:56.941Z,2.80
2019-05-19T22:17:24.302Z,1.67
2019-05-19T22:19:51.669Z,2.10
2019-05-19T22:22:19.109Z,1.77
2019-05-19T22:24:46.434Z,1.40
2019-05-19T22:27:13.772Z,1.70
2019-05-19T22:29:41.105Z,1.30
2019-05-19T22:32:08.434Z,1.67
2019-05-19T22:34:35.772Z,1.30
2019-05-19T22:37:03.166Z,1.00
2019-05-19T22:39:30.486Z,1.97
2019-05-19T22:41:57.843Z,1.73
2019-05-19T22:44:25.207Z,2.10
2019-05-19T22:46:52.569Z,3.57
2019-05-19T22:49:19.918Z,2.10
2019-05-19T22:51:47.288Z,1.70
2019-05-19T22:54:14.685Z,2.07
2019-05-19T22:56:42.010Z,2.20
2019-05-19T22:59:19.284Z,2.10
2019-05-19T23:01:50.973Z,2.43
2019-05-19T23:04:07.822Z,3.13
2019-05-19T23:06:35.173Z,2.10
2019-05-19T23:09:03.945Z,2.97
2019-05-19T23:11:31.247Z,2.20
2019-05-19T23:13:58.609Z,2.50
2019-05-19T23:16:25.985Z,2.77
2019-05-19T23:18:53.311Z,2.27
2019-05-19T23:21:20.687Z,2.43
2019-05-19T23:23:48.007Z,2.30
2019-05-19T23:26:15.323Z,2.60
2019-05-19T23:28:42.687Z,2.10
2019-05-19T23:31:10.058Z,2.90
2019-05-19T23:33:37.369Z,2.27
2019-05-19T23:36:04.757Z,2.13
2019-05-19T23:38:32.127Z,2.20
2019-05-19T23:40:59.440Z,3.20
2019-05-19T23:43:26.802Z,2.13
2019-05-19T23:45:54.105Z,2.70
2019-05-19T23:48:21.416Z,2.03
2019-05-19T23:50:48.827Z,2.77
2019-05-19T23:53:16.146Z,2.30
2019-05-19T23:55:43.467Z,2.50
2019-05-19T23:58:10.829Z,2.43
